Time;durP1;ratioP1;P1;durP2;ratioP2;P2;SDS_P1;SDS_P2;PMS_P1;PMS_P2;Temp;Humidity;BMP_temperature;BMP_pressure;BME280_temperature;BME280_humidity;BME280_pressure;Samples;Min_cycle;Max_cycle;Signal;HPM_P1;HPM_P2
2022/06/26 00:02:02;;;;;;;15.55;12.37;;;;;;;19.04;69.53;101325.95;1673420;83;21118;-88
2022/06/26 00:04:29;;;;;;;16.95;12.45;;;;;;;19.03;69.60;101324.61;1680718;83;21170;-88
2022/06/26 00:06:59;;;;;;;16.77;13.08;;;;;;;19.01;69.67;101329.06;1680644;83;22180;-87
2022/06/26 00:09:24;;;;;;;13.80;11.15;;;;;;;18.98;69.78;101325.08;1655769;83;21861;-87
2022/06/26 00:11:51;;;;;;;17.02;11.85;;;;;;;18.96;69.83;101326.86;1661097;85;21105;-88
2022/06/26 00:14:19;;;;;;;18.67;12.78;;;;;;;18.94;69.90;101333.95;1670130;85;21097;-87
2022/06/26 00:16:46;;;;;;;15.95;10.98;;;;;;;18.92;69.97;101331.73;1645530;83;21568;-88
2022/06/26 00:19:15;;;;;;;17.42;13.25;;;;;;;18.90;70.04;101332.18;1696611;82;21441;-87
2022/06/26 00:21:43;;;;;;;17.98;12.20;;;;;;;18.89;70.22;101333.97;1712918;82;21067;-87
2022/06/26 00:24:11;;;;;;;16.35;13.20;;;;;;;18.86;70.20;101336.62;1714610;82;21688;-88
2022/06/26 00:26:37;;;;;;;16.97;12.80;;;;;;;18.83;70.24;101340.19;1712752;82;21141;-88
2022/06/26 00:29:04;;;;;;;19.87;13.78;;;;;;;18.78;70.38;101337.92;1712938;82;21154;-88
2022/06/26 00:31:31;;;;;;;16.80;12.25;;;;;;;18.76;70.52;101331.70;1714193;82;21114;-88
2022/06/26 00:33:57;;;;;;;16.70;12.82;;;;;;;18.73;70.56;101341.05;1707905;83;21741;-87
2022/06/26 00:36:24;;;;;;;15.88;12.58;;;;;;;18.72;70.68;101341.92;1713139;82;21094;-87
2022/06/26 00:38:52;;;;;;;20.32;13.48;;;;;;;18.70;70.68;101337.04;1712595;82;21485;-88
2022/06/26 00:41:19;;;;;;;17.02;12.45;;;;;;;18.68;70.75;101340.61;1712898;82;21146;-87
2022/06/26 00:43:46;;;;;;;15.88;11.78;;;;;;;18.64;70.87;101339.25;1712440;82;21635;-88
2022/06/26 00:46:15;;;;;;;15.83;12.73;;;;;;;18.64;70.93;101342.37;1713783;82;21745;-87
2022/06/26 00:48:41;;;;;;;17.95;13.30;;;;;;;18.60;70.94;101344.14;1699792;82;21737;-88
2022/06/26 00:51:08;;;;;;;18.73;12.20;;;;;;;18.57;71.04;101345.91;1713322;82;21066;-88
2022/06/26 00:53:34;;;;;;;15.58;12.18;;;;;;;18.55;71.11;101351.69;1714029;82;22063;-88
2022/06/26 00:56:01;;;;;;;18.90;11.80;;;;;;;18.52;71.22;101350.34;1714697;82;21082;-87
2022/06/26 00:58:28;;;;;;;18.12;12.35;;;;;;;18.47;71.26;101350.34;1713212;82;21748;-87
2022/06/26 01:00:56;;;;;;;15.95;11.95;;;;;;;18.46;71.34;101349.44;1697421;82;21130;-87
2022/06/26 01:03:23;;;;;;;18.17;12.25;;;;;;;18.45;71.44;101346.34;1662659;83;21084;-88
2022/06/26 01:05:50;;;;;;;14.25;10.82;;;;;;;18.44;71.47;101353.88;1676962;82;21513;-88
2022/06/26 01:08:16;;;;;;;16.32;11.28;;;;;;;18.44;71.48;101346.33;1694626;82;21553;-87
2022/06/26 01:10:44;;;;;;;14.45;11.22;;;;;;;18.40;71.53;101345.43;1684298;82;21802;-87
2022/06/26 01:13:11;;;;;;;15.15;11.22;;;;;;;18.37;71.57;101349.41;1691353;83;21107;-88
2022/06/26 01:15:39;;;;;;;14.45;10.98;;;;;;;18.36;71.63;101344.98;1712686;82;21560;-87
2022/06/26 01:18:06;;;;;;;17.80;11.43;;;;;;;18.35;71.70;101350.30;1678000;83;21104;-88
2022/06/26 01:20:33;;;;;;;17.50;11.85;;;;;;;18.34;71.75;101351.17;1687459;82;21095;-88
2022/06/26 01:23:04;;;;;;;11.97;10.58;;;;;;;18.32;71.76;101353.86;1707221;82;22583;-88
2022/06/26 01:25:46;;;;;;;13.85;10.30;;;;;;;18.29;71.75;101357.84;1686674;82;21111;-87
2022/06/26 01:28:13;;;;;;;18.10;11.35;;;;;;;18.27;71.85;101360.95;1686946;83;21132;-88
2022/06/26 01:30:40;;;;;;;12.30;10.23;;;;;;;18.23;71.93;101357.83;1680129;83;21122;-87
2022/06/26 01:33:06;;;;;;;12.85;10.85;;;;;;;18.20;71.94;101352.48;1689395;82;21070;-87
2022/06/26 01:35:34;;;;;;;16.57;10.48;;;;;;;18.16;72.03;101351.58;1697322;82;21757;-88
2022/06/26 01:38:20;;;;;;;14.35;11.00;;;;;;;18.16;72.05;101360.02;1688813;82;21035;-88
2022/06/26 01:40:48;;;;;;;16.00;10.03;;;;;;;18.12;72.09;101358.23;1712750;82;21074;-87
2022/06/26 01:43:17;;;;;;;12.88;9.95;;;;;;;18.07;72.19;101352.88;1706436;82;21084;-87
2022/06/26 01:45:45;;;;;;;11.03;9.78;;;;;;;18.05;72.29;101351.53;1676424;83;21040;-87
2022/06/26 01:48:12;;;;;;;12.15;9.98;;;;;;;18.03;72.40;101353.75;1707953;82;21911;-86
2022/06/26 01:50:40;;;;;;;16.37;9.98;;;;;;;18.02;72.50;101348.00;1698066;82;22026;-88
2022/06/26 01:53:07;;;;;;;11.70;9.83;;;;;;;18.02;72.54;101356.87;1676463;82;21124;-87
2022/06/26 01:55:34;;;;;;;13.58;10.40;;;;;;;18.00;72.62;101359.97;1689240;83;21569;-88
2022/06/26 01:58:02;;;;;;;13.62;9.80;;;;;;;18.01;72.67;101354.19;1679166;84;22185;-88
2022/06/26 02:00:30;;;;;;;16.07;10.90;;;;;;;18.01;72.73;101363.52;1711808;82;21771;-88
2022/06/26 02:02:57;;;;;;;17.17;11.30;;;;;;;18.00;72.86;101361.30;1700019;82;21013;-88
2022/06/26 02:05:24;;;;;;;12.23;10.78;;;;;;;18.01;72.93;101363.06;1678347;83;21518;-88
2022/06/26 02:07:50;;;;;;;19.30;11.38;;;;;;;18.01;73.00;101363.52;1683541;82;21421;-87
2022/06/26 02:15:49;;;;;;;12.15;10.35;;;;;;;18.04;73.16;101361.76;1680174;83;21100;-88
2022/06/26 02:18:16;;;;;;;12.63;10.53;;;;;;;18.05;73.18;101366.19;1711009;82;21141;-88
2022/06/26 02:20:43;;;;;;;14.73;10.55;;;;;;;18.08;73.25;101359.12;1680255;83;21077;-88
2022/06/26 02:23:10;;;;;;;11.55;9.93;;;;;;;18.11;73.25;101367.09;1660493;83;21137;-87
2022/06/26 02:25:37;;;;;;;14.05;9.85;;;;;;;18.11;73.17;101364.44;1658477;83;21821;-88
2022/06/26 02:28:04;;;;;;;11.03;9.85;;;;;;;18.13;73.23;101366.24;1671414;84;21105;-88
2022/06/26 02:30:31;;;;;;;12.75;10.78;;;;;;;18.16;73.24;101368.02;1648545;84;21530;-87
2022/06/26 02:32:57;;;;;;;15.78;10.43;;;;;;;18.19;73.25;101369.37;1650970;83;21662;-87
2022/06/26 02:35:25;;;;;;;12.80;11.15;;;;;;;18.22;73.30;101369.36;1677979;84;21017;-88
2022/06/26 02:37:54;;;;;;;11.65;10.45;;;;;;;18.26;73.23;101369.81;1680146;83;21764;-87
2022/06/26 02:40:22;;;;;;;12.28;9.80;;;;;;;18.31;73.22;101365.84;1680279;83;21070;-87
2022/06/26 02:42:49;;;;;;;12.63;10.43;;;;;;;18.33;73.13;101371.61;1680121;83;21152;-88
2022/06/26 02:45:15;;;;;;;11.25;9.78;;;;;;;18.35;73.11;101368.51;1680020;83;21106;-87
2022/06/26 02:47:42;;;;;;;16.77;10.30;;;;;;;18.40;73.14;101373.42;1680148;83;21154;-87
2022/06/26 02:50:09;;;;;;;14.10;10.58;;;;;;;18.45;73.09;101380.11;1679961;83;21749;-88
2022/06/26 02:52:37;;;;;;;16.48;10.30;;;;;;;18.52;73.06;101377.88;1666796;84;21137;-88
2022/06/26 02:55:04;;;;;;;10.55;9.13;;;;;;;18.59;72.97;101382.34;1680067;83;21110;-88
2022/06/26 02:57:31;;;;;;;10.68;9.50;;;;;;;18.64;72.83;101381.92;1680265;83;21089;-88
2022/06/26 02:59:58;;;;;;;10.60;9.15;;;;;;;18.69;72.79;101385.03;1680382;83;21139;-87
2022/06/26 03:02:25;;;;;;;17.23;9.55;;;;;;;18.74;72.66;101383.27;1680326;83;22557;-88
2022/06/26 03:04:53;;;;;;;13.03;9.55;;;;;;;18.78;72.58;101387.27;1663519;84;21671;-87
2022/06/26 03:07:22;;;;;;;14.13;10.10;;;;;;;18.84;72.53;101381.99;1647174;84;21120;-87
2022/06/26 03:09:50;;;;;;;12.88;9.65;;;;;;;18.93;72.46;101390.88;1673652;84;21099;-87
2022/06/26 03:12:17;;;;;;;12.78;9.25;;;;;;;18.99;72.36;101387.75;1620088;86;21062;-88
2022/06/26 03:14:43;;;;;;;11.83;9.63;;;;;;;19.06;72.29;101387.32;1675263;84;21750;-88
2022/06/26 03:17:10;;;;;;;12.35;9.00;;;;;;;19.15;72.22;101395.33;1645439;84;21611;-88
2022/06/26 03:19:38;;;;;;;13.78;8.85;;;;;;;19.25;72.12;101389.99;1690511;82;21098;-88
2022/06/26 03:22:06;;;;;;;12.58;9.28;;;;;;;19.36;72.02;101396.21;1706667;82;21070;-87
2022/06/26 03:24:32;;;;;;;15.40;8.90;;;;;;;19.48;71.95;101391.30;1705972;82;21122;-88
2022/06/26 03:27:02;;;;;;;9.13;8.23;;;;;;;19.62;71.83;101391.71;1705863;82;21759;-87
2022/06/26 03:29:29;;;;;;;10.35;8.40;;;;;;;19.83;71.92;101392.59;1705105;82;21123;-88
2022/06/26 03:31:56;;;;;;;11.70;8.53;;;;;;;20.57;73.34;101397.16;1704985;82;21185;-88
2022/06/26 03:34:23;;;;;;;10.72;8.68;;;;;;;21.74;72.40;101387.31;1704861;82;21071;-88
2022/06/26 03:36:50;;;;;;;12.23;8.08;;;;;;;22.75;71.90;101389.15;1705066;82;21078;-88
2022/06/26 03:39:17;;;;;;;9.68;8.35;;;;;;;23.71;69.75;101396.47;1675635;83;21746;-88
2022/06/26 03:41:57;;;;;;;9.53;8.18;;;;;;;23.71;67.09;101396.94;1704565;82;21547;-88
2022/06/26 03:44:12;;;;;;;9.35;7.62;;;;;;;23.39;66.07;101397.08;1703672;82;21106;-88
2022/06/26 03:46:39;;;;;;;11.70;8.05;;;;;;;23.02;65.76;101381.09;1693887;82;21113;-88
2022/06/26 03:49:08;;;;;;;11.25;7.75;;;;;;;23.02;65.76;101381.09;1680738;82;21105;-88
2022/06/26 03:51:36;;;;;;;16.27;8.25;;;;;;;23.26;65.90;101403.13;1699168;82;21773;-88
2022/06/26 03:54:03;;;;;;;8.08;7.05;;;;;;;23.83;66.31;101398.94;1678865;83;21082;-89
2022/06/26 03:56:30;;;;;;;8.63;7.08;;;;;;;24.98;66.03;101412.15;1702963;83;22073;-89
2022/06/26 03:59:00;;;;;;;8.75;7.55;;;;;;;26.74;65.87;101400.98;1703383;82;21158;-89
2022/06/26 04:01:28;;;;;;;9.63;7.65;;;;;;;28.68;63.62;101404.91;1683739;83;21133;-86
2022/06/26 04:03:55;;;;;;;7.97;6.17;;;;;;;30.36;60.75;101403.06;1701032;82;21765;-87
2022/06/26 04:06:21;;;;;;;8.80;6.17;;;;;;;31.74;58.96;101408.87;1661931;83;21136;-87
2022/06/26 04:08:51;;;;;;;9.70;6.42;;;;;;;33.06;56.20;101410.63;1661715;82;21089;-86
2022/06/26 04:11:17;;;;;;;8.73;6.40;;;;;;;34.14;53.63;101414.48;1675992;83;21431;-87
2022/06/26 04:13:44;;;;;;;9.33;5.75;;;;;;;34.89;51.26;101405.14;1697714;83;21067;-87
2022/06/26 04:16:11;;;;;;;6.87;5.67;;;;;;;35.54;49.51;101417.56;1706988;82;21949;-87
2022/06/26 04:18:37;;;;;;;6.42;5.33;;;;;;;36.19;48.05;101416.64;1686103;83;21447;-87
2022/06/26 04:21:04;;;;;;;9.13;5.58;;;;;;;36.93;46.63;101416.66;1677890;82;21477;-87
2022/06/26 04:23:31;;;;;;;7.70;5.45;;;;;;;37.68;44.87;101418.74;1663546;84;21110;-87
2022/06/26 04:25:58;;;;;;;6.00;5.25;;;;;;;38.26;43.75;101421.45;1683427;83;21069;-87
2022/06/26 04:28:25;;;;;;;5.33;4.70;;;;;;;38.97;42.44;101426.56;1665490;84;21816;-87
2022/06/26 04:30:51;;;;;;;6.30;4.53;;;;;;;39.46;40.34;101421.91;1673226;84;21078;-88
2022/06/26 04:33:21;;;;;;;5.45;4.00;;;;;;;39.81;39.79;101426.69;1673394;84;21608;-87
2022/06/26 04:35:48;;;;;;;6.72;4.25;;;;;;;40.52;38.41;101428.66;1684947;83;21665;-87
2022/06/26 04:38:15;;;;;;;7.90;4.60;;;;;;;41.10;37.15;101427.91;1674766;83;21073;-88
2022/06/26 04:40:41;;;;;;;6.90;4.15;;;;;;;41.56;36.38;101431.84;1676565;82;21705;-88
2022/06/26 04:43:09;;;;;;;8.65;4.97;;;;;;;42.08;35.18;101435.09;1684209;83;21147;-88
2022/06/26 04:45:35;;;;;;;4.70;4.28;;;;;;;42.47;34.08;101437.70;1663291;84;21113;-88
2022/06/26 04:48:03;;;;;;;6.03;4.40;;;;;;;42.83;33.13;101429.98;1679894;84;21099;-88
2022/06/26 04:50:29;;;;;;;4.83;4.37;;;;;;;43.08;32.27;101429.73;1681465;84;21082;-88
2022/06/26 04:52:58;;;;;;;4.65;4.20;;;;;;;43.36;31.77;101433.83;1676653;84;21572;-88
2022/06/26 04:55:26;;;;;;;7.67;4.17;;;;;;;43.67;30.80;101431.48;1679689;82;21026;-88
2022/06/26 04:57:55;;;;;;;7.55;4.03;;;;;;;44.02;30.15;101433.82;1682726;82;21085;-88
2022/06/26 05:00:21;;;;;;;7.62;3.85;;;;;;;44.37;29.61;101439.72;1681817;84;21069;-88
2022/06/26 05:02:48;;;;;;;7.08;3.90;;;;;;;44.76;29.03;101439.19;1685571;83;21076;-88
2022/06/26 05:05:15;;;;;;;6.17;4.20;;;;;;;45.04;28.38;101443.63;1676145;83;21791;-89
2022/06/26 05:07:42;;;;;;;5.58;4.45;;;;;;;45.17;27.71;101445.37;1676071;83;20967;-87
2022/06/26 05:10:09;;;;;;;5.97;3.52;;;;;;;45.31;27.13;101442.44;1673429;84;21129;-88
2022/06/26 05:12:37;;;;;;;6.65;4.05;;;;;;;45.45;26.68;101443.14;1674164;84;21542;-88
2022/06/26 05:15:05;;;;;;;8.43;4.03;;;;;;;45.43;26.21;101438.28;1685659;82;21143;-88
2022/06/26 05:17:32;;;;;;;5.10;3.80;;;;;;;45.66;25.70;101445.91;1685454;82;21758;-89
2022/06/26 05:19:59;;;;;;;4.80;3.67;;;;;;;45.79;25.30;101446.25;1681875;82;21094;-88
2022/06/26 05:22:26;;;;;;;4.33;3.37;;;;;;;45.87;25.23;101449.54;1704853;82;22317;-88
2022/06/26 05:24:53;;;;;;;5.25;3.55;;;;;;;46.07;24.74;101444.48;1689470;82;21088;-88
2022/06/26 05:27:20;;;;;;;5.12;3.70;;;;;;;46.37;24.42;101442.80;1702865;82;21106;-87
2022/06/26 05:29:50;;;;;;;3.95;3.47;;;;;;;46.54;24.07;101454.22;1702942;82;21094;-87
2022/06/26 05:32:20;;;;;;;7.12;3.52;;;;;;;46.60;23.77;101452.62;1705312;82;21083;-88
2022/06/26 05:34:50;;;;;;;5.10;3.33;;;;;;;46.71;23.36;101452.74;1706384;82;21110;-89
2022/06/26 05:37:16;;;;;;;5.12;3.77;;;;;;;46.62;22.96;101457.48;1706344;82;21130;-88
2022/06/26 05:39:43;;;;;;;3.98;3.33;;;;;;;46.55;22.84;101461.53;1708408;82;21074;-88
2022/06/26 05:42:12;;;;;;;3.95;3.45;;;;;;;46.52;22.64;101456.85;1703988;82;21769;-87
2022/06/26 05:44:38;;;;;;;5.40;3.55;;;;;;;46.03;22.29;101464.81;1708605;82;21082;-89
2022/06/26 05:47:07;;;;;;;6.85;4.30;;;;;;;44.08;22.22;101458.64;1707959;83;21074;-88
2022/06/26 05:49:36;;;;;;;13.13;4.75;;;;;;;41.73;23.07;101466.19;1707880;82;21134;-88
2022/06/26 05:52:06;;;;;;;3.95;3.50;;;;;;;39.45;24.30;101460.09;1706476;82;21066;-87
2022/06/26 05:54:34;;;;;;;4.47;3.80;;;;;;;37.76;25.51;101460.72;1705839;83;21796;-88
2022/06/26 05:57:01;;;;;;;6.95;4.33;;;;;;;36.28;26.67;101456.19;1703792;82;21042;-88
2022/06/26 05:59:28;;;;;;;4.80;4.00;;;;;;;34.98;27.82;101452.40;1704778;82;21010;-87
2022/06/26 06:01:54;;;;;;;5.75;4.03;;;;;;;33.88;28.92;101451.64;1705385;82;21078;-88
2022/06/26 06:04:21;;;;;;;5.47;4.45;;;;;;;32.93;29.92;101459.55;1662864;82;21611;-87
2022/06/26 06:06:48;;;;;;;6.87;4.55;;;;;;;32.08;31.12;101453.82;1687280;83;21763;-87
2022/06/26 06:09:15;;;;;;;6.33;4.37;;;;;;;31.39;32.02;101454.22;1696827;82;21582;-87
2022/06/26 06:11:44;;;;;;;8.33;4.22;;;;;;;30.83;32.97;101456.55;1686477;82;21154;-87
2022/06/26 06:14:11;;;;;;;9.53;5.08;;;;;;;30.28;33.71;101462.27;1699553;82;21941;-87
2022/06/26 06:16:40;;;;;;;7.10;4.65;;;;;;;29.91;34.57;101463.94;1701476;83;21111;-86
2022/06/26 06:19:06;;;;;;;6.83;4.37;;;;;;;29.57;35.22;101457.25;1701892;82;22600;-87
2022/06/26 06:21:33;;;;;;;7.92;5.30;;;;;;;29.23;35.80;101460.53;1700687;83;21010;-87
2022/06/26 06:24:02;;;;;;;10.68;4.95;;;;;;;28.95;36.35;101463.47;1702337;82;21079;-87
2022/06/26 06:26:30;;;;;;;6.00;4.45;;;;;;;28.69;36.92;101464.91;1694102;81;21593;-87
2022/06/26 06:28:57;;;;;;;6.67;5.00;;;;;;;28.45;37.34;101469.41;1704657;82;21134;-90
2022/06/26 06:31:27;;;;;;;6.95;4.75;;;;;;;28.23;37.85;101471.17;1701289;82;22591;-87
2022/06/26 06:33:54;;;;;;;6.00;5.08;;;;;;;28.01;38.35;101471.11;1651423;82;21011;-87
2022/06/26 06:36:23;;;;;;;7.22;4.87;;;;;;;27.81;38.89;101469.95;1692442;82;21083;-87
2022/06/26 06:38:53;;;;;;;7.33;4.97;;;;;;;27.68;39.43;101471.32;1705622;82;21067;-87
2022/06/26 06:41:18;;;;;;;7.17;5.30;;;;;;;27.62;39.85;101472.42;1702176;82;21058;-87
2022/06/26 06:44:01;;;;;;;5.55;4.97;;;;;;;27.52;40.22;101475.92;1700016;83;21381;-87
2022/06/26 06:46:28;;;;;;;5.75;5.20;;;;;;;27.43;40.76;101478.93;1689544;83;21066;-87
2022/06/26 06:48:54;;;;;;;7.85;5.12;;;;;;;27.26;41.06;101479.97;1673380;84;21086;-87
2022/06/26 06:51:21;;;;;;;9.73;6.20;;;;;;;27.15;41.55;101473.53;1706941;82;21109;-87
2022/06/26 06:53:49;;;;;;;8.78;6.08;;;;;;;27.07;42.06;101479.19;1690765;83;21104;-87
2022/06/26 06:56:17;;;;;;;9.55;5.65;;;;;;;27.01;42.59;101475.78;1660972;82;21796;-87
2022/06/26 06:58:45;;;;;;;7.42;5.40;;;;;;;27.03;42.86;101471.21;1668820;84;21068;-87
2022/06/26 07:01:12;;;;;;;7.62;5.87;;;;;;;27.03;43.13;101477.97;1643131;85;21344;-88
2022/06/26 07:03:39;;;;;;;8.80;6.17;;;;;;;26.99;43.30;101475.86;1626655;85;21113;-87
2022/06/26 07:06:08;;;;;;;6.97;5.12;;;;;;;26.90;43.45;101471.63;1611381;86;21214;-87
2022/06/26 07:08:34;;;;;;;7.92;5.78;;;;;;;26.87;43.75;101476.23;1628973;85;21755;-87
2022/06/26 07:11:02;;;;;;;15.50;6.12;;;;;;;26.85;43.96;101474.05;1641497;85;21070;-87
2022/06/26 07:13:28;;;;;;;6.70;5.10;;;;;;;26.85;44.29;101469.52;1632785;85;21212;-88
2022/06/26 07:15:56;;;;;;;7.45;5.47;;;;;;;26.89;44.56;101475.24;1614511;87;21543;-88
2022/06/26 07:18:24;;;;;;;6.58;5.35;;;;;;;26.94;44.70;101475.98;1604247;86;21114;-88
2022/06/26 07:20:51;;;;;;;7.80;5.95;;;;;;;26.96;44.69;101480.87;1640586;83;21771;-88
2022/06/26 07:23:18;;;;;;;10.28;5.60;;;;;;;26.85;44.76;101483.03;1645378;83;21089;-88
2022/06/26 07:25:44;;;;;;;6.22;5.60;;;;;;;26.84;44.97;101477.23;1645400;83;21090;-88
2022/06/26 07:28:11;;;;;;;10.35;5.95;;;;;;;26.87;45.31;101475.76;1645432;83;21089;-88
2022/06/26 07:30:38;;;;;;;6.22;5.55;;;;;;;26.88;45.33;101472.58;1666085;83;21503;-88
2022/06/26 07:34:12;;;;;;;6.33;5.80;;;;;;;26.86;45.59;101479.41;1655784;84;21691;-87
2022/06/26 07:35:34;;;;;;;12.73;5.90;;;;;;;26.88;45.72;101476.19;1645310;85;21101;-88
2022/06/26 07:38:01;;;;;;;10.05;5.85;;;;;;;26.89;45.79;101481.12;1657625;84;21102;-88
2022/06/26 07:40:27;;;;;;;9.23;5.92;;;;;;;26.91;45.96;101478.77;1633700;85;21081;-88
2022/06/26 07:42:56;;;;;;;7.95;5.33;;;;;;;26.99;46.05;101483.97;1634316;84;21259;-88
2022/06/26 07:45:29;;;;;;;7.25;5.58;;;;;;;26.97;46.06;101473.64;1680235;83;21826;-88
2022/06/26 07:47:55;;;;;;;8.13;6.20;;;;;;;27.03;46.24;101480.67;1641383;84;21579;-88
2022/06/26 07:50:21;;;;;;;6.20;5.60;;;;;;;27.08;46.41;101478.70;1642504;85;20985;-88
2022/06/26 07:52:48;;;;;;;9.50;6.25;;;;;;;27.13;46.39;101479.45;1660947;85;21139;-88
2022/06/26 07:55:16;;;;;;;5.90;5.30;;;;;;;27.21;46.73;101477.84;1648491;83;21101;-88
2022/06/26 07:57:43;;;;;;;9.60;5.80;;;;;;;27.25;46.62;101480.42;1664506;84;21868;-88
2022/06/26 08:00:10;;;;;;;7.55;6.12;;;;;;;27.22;46.52;101479.16;1644569;84;21137;-87
2022/06/26 08:02:37;;;;;;;6.22;5.37;;;;;;;27.15;46.61;101478.94;1659966;85;21085;-88
2022/06/26 08:05:05;;;;;;;9.20;5.67;;;;;;;27.17;46.77;101480.23;1645193;84;21250;-88
2022/06/26 08:07:31;;;;;;;6.75;5.90;;;;;;;27.21;46.86;101490.01;1657529;85;21085;-88
2022/06/26 08:09:58;;;;;;;7.97;5.53;;;;;;;27.22;46.88;101478.28;1660355;84;21782;-88
2022/06/26 08:12:25;;;;;;;10.90;5.50;;;;;;;27.24;47.12;101477.76;1680220;83;21057;-88
2022/06/26 08:14:52;;;;;;;8.48;5.70;;;;;;;27.29;46.89;101480.76;1649383;85;21086;-88
2022/06/26 08:17:19;;;;;;;6.15;5.65;;;;;;;27.31;46.83;101488.34;1652872;85;21607;-88
2022/06/26 08:19:47;;;;;;;5.87;5.28;;;;;;;27.32;46.86;101489.22;1660217;84;21149;-88
2022/06/26 08:22:14;;;;;;;7.05;5.37;;;;;;;27.36;46.92;101484.59;1661572;83;21780;-88
2022/06/26 08:24:41;;;;;;;6.65;5.20;;;;;;;27.40;46.98;101490.31;1643538;85;21075;-88
2022/06/26 08:27:09;;;;;;;6.58;5.00;;;;;;;27.41;46.97;101483.98;1646554;85;21091;-88
2022/06/26 08:29:36;;;;;;;5.83;5.20;;;;;;;27.43;47.02;101491.58;1638209;84;21092;-88
2022/06/26 08:32:03;;;;;;;7.45;5.05;;;;;;;27.46;47.20;101491.45;1646820;85;21172;-88
2022/06/26 08:34:32;;;;;;;7.20;5.33;;;;;;;27.54;47.38;101488.91;1641563;85;21419;-89
2022/06/26 08:36:59;;;;;;;9.13;5.78;;;;;;;27.61;47.19;101494.10;1660995;85;21647;-89
2022/06/26 08:39:26;;;;;;;8.58;5.17;;;;;;;27.58;47.23;101485.64;1634943;85;21089;-88
2022/06/26 08:41:56;;;;;;;6.33;5.20;;;;;;;27.60;47.40;101489.65;1660707;85;21093;-88
2022/06/26 08:44:24;;;;;;;7.75;5.37;;;;;;;27.64;47.27;101494.88;1713155;82;21118;-88
2022/06/26 08:46:51;;;;;;;10.45;8.15;;;;;;;27.73;47.29;101483.75;1677788;82;21791;-88
2022/06/26 08:49:20;;;;;;;7.72;5.45;;;;;;;27.84;47.54;101478.44;1676736;83;21593;-88
2022/06/26 08:51:48;;;;;;;9.30;5.47;;;;;;;27.94;47.46;101480.38;1683770;83;21082;-89
2022/06/26 08:54:15;;;;;;;5.55;4.85;;;;;;;27.99;47.27;101477.92;1713362;82;21090;-89
2022/06/26 08:56:44;;;;;;;7.67;4.92;;;;;;;27.99;46.82;101481.10;1663505;82;21106;-88
2022/06/26 08:59:12;;;;;;;8.93;5.37;;;;;;;28.00;46.95;101475.61;1712921;83;21807;-89
2022/06/26 09:01:39;;;;;;;8.45;5.00;;;;;;;28.00;47.05;101482.38;1677068;83;21126;-89
2022/06/26 09:04:06;;;;;;;7.67;5.87;;;;;;;28.03;47.17;101482.27;1676912;83;21529;-87
2022/06/26 09:06:38;;;;;;;8.85;5.05;;;;;;;28.09;47.01;101477.11;1652149;84;21008;-88
2022/06/26 09:09:22;;;;;;;7.03;5.10;;;;;;;28.14;46.91;101479.62;1709291;82;21410;-88
2022/06/26 09:11:48;;;;;;;;;;;;;;;28.17;46.91;101482.23;1686677;83;23273;-87
2022/06/26 09:14:15;;;;;;;8.35;4.70;;;;;;;28.22;47.01;101471.65;1714603;82;20768;-88
2022/06/26 09:16:43;;;;;;;5.97;4.20;;;;;;;28.23;46.79;101471.17;1698233;82;21009;-89
2022/06/26 09:19:12;;;;;;;5.75;4.28;;;;;;;28.27;46.76;101469.66;1706030;82;21011;-89
2022/06/26 09:21:39;;;;;;;8.30;4.67;;;;;;;28.34;46.16;101476.19;1689337;82;21059;-89
2022/06/26 09:24:12;;;;;;;5.62;4.75;;;;;;;28.31;46.03;101475.84;1681584;84;21853;-89
2022/06/26 09:26:39;;;;;;;4.97;4.20;;;;;;;28.33;46.10;101473.95;1687518;83;21042;-89
2022/06/26 09:29:15;;;;;;;9.23;5.15;;;;;;;28.40;46.41;101475.50;1687320;83;21974;-88
2022/06/26 09:31:42;;;;;;;4.22;3.92;;;;;;;28.52;46.68;101474.17;1676909;83;21073;-89
2022/06/26 09:34:21;;;;;;;7.95;4.20;;;;;;;28.58;45.96;101476.63;1670659;85;21053;-89
2022/06/26 09:37:03;;;;;;;7.62;4.17;;;;;;;28.58;45.80;101479.34;1653977;83;21879;-89
2022/06/26 09:39:31;;;;;;;6.25;4.30;;;;;;;28.65;45.90;101478.16;1643225;83;21083;-89
2022/06/26 09:42:18;;;;;;;8.15;3.72;;;;;;;28.77;45.80;101482.20;1660716;84;21078;-89
2022/06/26 09:44:47;;;;;;;7.53;3.62;;;;;;;28.87;45.51;101478.20;1638629;84;21495;-89
2022/06/26 09:47:27;;;;;;;4.87;3.65;;;;;;;28.98;45.66;101479.58;1638428;84;21499;-89
2022/06/26 09:49:57;;;;;;;4.85;3.70;;;;;;;29.08;45.24;101475.57;1664795;84;21782;-89
2022/06/26 09:52:27;;;;;;;6.35;4.08;;;;;;;29.03;44.99;101485.23;1640382;84;21035;-89
2022/06/26 09:54:54;;;;;;;7.50;3.98;;;;;;;29.07;44.87;101481.47;1664407;84;21149;-89
2022/06/26 09:57:21;;;;;;;4.87;3.62;;;;;;;29.10;44.65;101475.52;1638505;85;21089;-89
2022/06/26 09:59:48;;;;;;;7.85;5.03;;;;;;;29.08;44.52;101474.22;1646413;83;21702;-89
2022/06/26 10:07:52;;;;;;;4.70;4.28;;;;;;;29.19;44.53;101470.63;1643374;84;21086;-88
2022/06/26 10:10:22;;;;;;;4.00;3.50;;;;;;;29.26;44.37;101469.88;1659752;84;21062;-89
2022/06/26 10:12:58;;;;;;;5.12;3.98;;;;;;;29.28;44.09;101472.05;1651682;85;21336;-89
2022/06/26 10:15:28;;;;;;;5.22;3.52;;;;;;;29.27;44.01;101466.23;1650906;84;23129;-89
2022/06/26 10:18:38;;;;;;;7.05;4.78;;;;;;;29.34;43.87;101465.48;1664569;84;21478;-89
2022/06/26 10:21:12;;;;;;;5.55;4.70;;;;;;;29.44;43.62;101470.45;1624466;86;21158;-89
2022/06/26 10:23:39;;;;;;;;;;;;;;;29.58;43.08;101464.45;1675255;84;21121;-90
2022/06/26 10:26:19;;;;;;;5.50;3.02;;;;;;;29.63;42.57;101462.41;1623779;84;20605;-89
2022/06/26 10:29:05;;;;;;;8.30;3.50;;;;;;;29.68;42.10;101461.34;1638245;84;22472;-89
2022/06/26 10:31:49;;;;;;;3.65;3.35;;;;;;;29.72;41.95;101462.97;1647334;84;21078;-88
2022/06/26 10:34:22;;;;;;;5.53;3.50;;;;;;;29.70;41.84;101456.25;1635584;85;27187;-89
2022/06/26 10:37:04;;;;;;;4.83;3.45;;;;;;;29.80;42.36;101459.47;1643261;84;21562;-89
2022/06/26 10:39:42;;;;;;;4.45;3.25;;;;;;;29.91;42.08;101460.35;1638287;84;21107;-89
2022/06/26 10:45:32;;;;;;;9.33;6.00;;;;;;;30.02;41.95;101458.03;1648295;84;21082;-89
2022/06/26 10:48:01;;;;;;;5.30;4.33;;;;;;;30.06;42.11;101457.42;1672179;84;21579;-89
2022/06/26 10:50:37;;;;;;;4.55;3.10;;;;;;;30.18;42.30;101455.03;1638273;84;21198;-89
2022/06/26 10:53:24;;;;;;;5.40;4.37;;;;;;;30.28;41.22;101458.20;1638170;84;21094;-89
2022/06/26 10:55:57;;;;;;;7.20;4.03;;;;;;;30.34;40.73;101452.50;1638158;84;21877;-89
2022/06/26 10:58:35;;;;;;;6.65;3.83;;;;;;;30.37;40.60;101451.46;1667140;84;20974;-89
2022/06/26 11:01:04;;;;;;;3.70;3.37;;;;;;;30.35;40.61;101452.02;1671287;84;21066;-88
2022/06/26 11:03:30;;;;;;;6.53;3.35;;;;;;;30.26;40.51;101449.69;1651623;84;21078;-89
2022/06/26 11:06:09;;;;;;;5.85;2.55;;;;;;;30.31;39.99;101455.80;1646280;84;21118;-89
2022/06/26 11:08:45;;;;;;;3.40;3.10;;;;;;;30.38;38.92;101451.40;1651854;84;22483;-89
2022/06/26 11:11:25;;;;;;;4.15;3.47;;;;;;;30.45;38.25;101453.84;1652586;84;21085;-88
2022/06/26 11:13:58;;;;;;;6.83;3.15;;;;;;;30.53;38.07;101453.87;1649075;84;21113;-88
2022/06/26 11:16:38;;;;;;;3.30;2.40;;;;;;;30.65;37.63;101440.16;1656638;85;21055;-89
2022/06/26 11:19:07;;;;;;;4.65;3.00;;;;;;;30.77;37.48;101448.22;1674091;85;21125;-89
2022/06/26 11:21:37;;;;;;;3.47;3.17;;;;;;;30.95;37.11;101443.27;1653076;85;21772;-89
2022/06/26 11:24:03;;;;;;;11.53;4.87;;;;;;;31.15;36.88;101440.02;1656370;84;21609;-89
2022/06/26 11:26:29;;;;;;;3.50;3.20;;;;;;;31.35;36.86;101451.27;1664686;83;21567;-89
2022/06/26 11:29:02;;;;;;;5.65;2.95;;;;;;;31.49;36.40;101454.16;1658647;85;21137;-88
2022/06/26 11:31:31;;;;;;;3.67;2.67;;;;;;;31.56;36.11;101449.30;1647806;83;21137;-88
2022/06/26 11:34:12;;;;;;;7.92;7.22;;;;;;;31.64;36.01;101455.20;1624890;86;21909;-89
2022/06/26 11:36:50;;;;;;;5.87;3.33;;;;;;;31.76;35.89;101449.13;1634147;85;21469;-88
2022/06/26 11:39:18;;;;;;;3.08;2.70;;;;;;;31.90;35.35;101446.15;1652409;85;21110;-88
2022/06/26 11:41:45;;;;;;;4.85;2.90;;;;;;;32.01;35.08;101446.45;1661571;84;21813;-89
2022/06/26 11:44:12;;;;;;;4.55;3.80;;;;;;;32.07;34.95;101447.50;1661584;86;21069;-89